createdAt,value
2023-02-19T05:01:41.858Z,5.53
2023-02-19T05:04:15.471Z,5.49
2023-02-19T05:06:47.530Z,5.57
2023-02-19T05:09:21.216Z,5.57
2023-02-19T05:11:50.409Z,5.37
2023-02-19T05:14:32.494Z,5.32
2023-02-19T05:17:10.774Z,5.19
2023-02-19T05:19:48.900Z,5.15
2023-02-19T05:22:18.475Z,5.11
2023-02-19T05:24:50.657Z,5.25
2023-02-19T05:27:26.327Z,5.10
2023-02-19T05:30:02.597Z,5.11
2023-02-19T06:04:06.228Z,3.96
2023-02-19T06:06:35.885Z,3.82
2023-02-19T06:09:09.449Z,3.83
2023-02-19T06:11:43.692Z,3.76
2023-02-19T06:14:27.000Z,3.70
2023-02-19T06:17:15.305Z,3.48
2023-02-19T06:20:13.906Z,2.11
2023-02-19T06:22:44.404Z,3.33
2023-02-19T06:25:17.790Z,3.32
2023-02-19T06:27:48.653Z,3.26
2023-02-19T06:30:20.726Z,3.13
2023-02-19T06:32:52.527Z,3.07
2023-02-19T06:35:41.866Z,3.10
2023-02-19T06:38:13.031Z,3.11
2023-02-19T06:40:49.642Z,2.95
2023-02-19T06:43:27.796Z,2.97
2023-02-19T06:46:03.858Z,1.19
2023-02-19T06:48:35.559Z,2.99
2023-02-19T06:51:09.121Z,3.11
2023-02-19T06:53:38.509Z,3.17
2023-02-19T06:56:26.037Z,2.66
2023-02-19T06:59:04.689Z,3.19
2023-02-19T07:01:37.526Z,3.23
2023-02-19T07:04:07.599Z,3.26
2023-02-19T07:06:45.096Z,3.18
2023-02-19T07:09:16.224Z,3.28
2023-02-19T07:11:45.249Z,3.30
2023-02-19T07:14:25.155Z,2.96
2023-02-19T07:16:58.484Z,3.57
2023-02-19T07:19:39.290Z,3.62
2023-02-19T07:22:18.815Z,3.64
2023-02-19T07:24:50.165Z,3.29
2023-02-19T07:27:21.523Z,3.76
2023-02-19T07:29:56.237Z,3.77
2023-02-19T07:32:27.714Z,3.88
2023-02-19T07:35:01.905Z,3.85
2023-02-19T07:37:36.799Z,3.84
2023-02-19T07:40:06.818Z,3.88
2023-02-19T07:42:38.329Z,3.82
2023-02-19T07:53:45.264Z,4.05
2023-02-19T08:00:30.199Z,4.20
2023-02-19T08:03:11.398Z,4.37
2023-02-19T08:05:59.470Z,3.87
2023-02-19T08:09:07.734Z,4.71
2023-02-19T08:11:57.377Z,4.85
2023-02-19T08:14:32.780Z,4.97
2023-02-19T08:17:05.809Z,4.96
2023-02-19T08:19:43.691Z,4.97
2023-02-19T08:22:17.142Z,4.89
2023-02-19T08:24:54.243Z,4.93
2023-02-19T08:27:34.143Z,4.97
2023-02-19T08:30:22.127Z,5.01
2023-02-19T08:33:09.208Z,5.02
2023-02-19T08:35:44.903Z,5.17
2023-02-19T08:38:29.390Z,5.24
2023-02-19T08:41:06.565Z,5.29
2023-02-19T08:43:44.514Z,5.48
2023-02-19T08:46:25.196Z,5.56
2023-02-19T08:49:33.061Z,5.49
2023-02-19T08:52:13.661Z,5.51
2023-02-19T08:54:46.970Z,5.41
2023-02-19T08:57:54.257Z,4.92
2023-02-19T09:01:15.998Z,5.37
2023-02-19T09:03:37.883Z,5.25
2023-02-19T09:13:16.034Z,5.30
2023-02-19T09:15:44.736Z,5.48
2023-02-19T09:18:13.938Z,5.52
2023-02-19T09:20:49.762Z,5.48
2023-02-19T09:23:18.853Z,5.40
2023-02-19T09:25:48.607Z,5.46
2023-02-19T09:28:51.939Z,5.52
2023-02-19T09:31:22.568Z,5.57
2023-02-19T09:33:51.934Z,5.64
2023-02-19T09:36:25.303Z,5.78
2023-02-19T09:39:08.233Z,5.83
2023-02-19T09:41:39.830Z,6.00
2023-02-19T09:48:38.086Z,5.94
2023-02-19T09:51:09.432Z,5.98
2023-02-19T09:53:46.682Z,6.04
2023-02-19T09:56:17.234Z,6.09
2023-02-19T09:59:04.495Z,6.16
2023-02-19T10:02:03.386Z,5.20
2023-02-19T10:05:18.731Z,6.54
2023-02-19T10:16:45.237Z,6.38
2023-02-19T10:19:37.615Z,6.57
2023-02-19T10:22:11.906Z,6.61
2023-02-19T10:24:46.764Z,6.43
2023-02-19T10:27:23.352Z,4.83
2023-02-19T10:29:55.871Z,6.29
2023-02-19T10:32:49.734Z,6.10
2023-02-19T10:36:06.503Z,6.21
2023-02-19T10:38:47.794Z,6.29
2023-02-19T10:41:22.737Z,6.28
2023-02-19T10:44:13.972Z,6.16
2023-02-19T10:46:45.964Z,5.98
2023-02-19T10:49:26.649Z,6.14
2023-02-19T10:52:02.824Z,6.22
2023-02-19T10:54:36.198Z,6.18
2023-02-19T10:57:39.129Z,6.22
2023-02-19T11:00:27.227Z,6.35
2023-02-19T11:03:47.981Z,6.62
2023-02-19T11:11:11.988Z,6.43
2023-02-19T11:13:59.841Z,6.34
2023-02-19T11:16:44.984Z,6.32
2023-02-19T11:19:39.185Z,5.58
2023-02-19T11:22:22.199Z,6.00
2023-02-19T11:24:56.695Z,5.97
2023-02-19T11:27:30.498Z,6.05
2023-02-19T11:30:36.243Z,5.02
2023-02-19T11:33:30.632Z,5.93
2023-02-19T11:36:30.486Z,6.23
2023-02-19T11:39:09.366Z,4.69
2023-02-19T11:42:22.500Z,6.42
2023-02-19T11:45:24.717Z,6.07
2023-02-19T11:48:34.077Z,5.44
2023-02-19T11:51:43.208Z,5.81
2023-02-19T11:54:37.660Z,6.30
2023-02-19T11:57:26.677Z,6.23
2023-02-19T12:00:29.998Z,6.19
2023-02-19T12:03:50.661Z,6.07
2023-02-19T12:06:35.606Z,5.99
2023-02-19T12:09:47.776Z,6.14
2023-02-19T12:12:43.734Z,5.96
2023-02-19T12:15:38.482Z,5.89
2023-02-19T12:18:45.605Z,5.87
2023-02-19T12:21:42.623Z,5.91
2023-02-19T12:25:00.902Z,4.11
2023-02-19T12:27:51.640Z,6.41
2023-02-19T12:30:36.983Z,6.78
2023-02-19T12:33:50.901Z,6.62
2023-02-19T12:36:29.158Z,6.93
2023-02-19T12:39:09.072Z,6.72
2023-02-19T12:42:21.508Z,4.94
2023-02-19T12:44:57.865Z,6.57
2023-02-19T12:47:33.880Z,6.80
2023-02-19T12:50:15.735Z,6.95
2023-02-19T12:52:53.618Z,7.16
2023-02-19T12:55:27.203Z,7.50
2023-02-19T12:58:06.970Z,7.69
2023-02-19T13:00:40.742Z,7.76
2023-02-19T13:03:21.143Z,7.78
2023-02-19T13:05:58.655Z,7.88
2023-02-19T13:08:34.181Z,8.02
2023-02-19T13:11:18.789Z,6.71
2023-02-19T13:13:52.824Z,7.78
2023-02-19T13:16:24.282Z,6.09
2023-02-19T13:19:01.261Z,5.53
2023-02-19T13:21:55.517Z,7.00
2023-02-19T13:24:31.513Z,6.04
2023-02-19T13:27:55.555Z,5.50
2023-02-19T13:30:44.926Z,6.09
2023-02-19T13:33:46.588Z,6.68
2023-02-19T13:36:28.030Z,6.91
2023-02-19T13:39:02.699Z,7.10
2023-02-19T13:41:42.660Z,6.01
2023-02-19T13:44:22.994Z,7.11
2023-02-19T13:46:53.929Z,5.53
2023-02-19T13:49:46.391Z,6.66
2023-02-19T13:52:39.772Z,6.17
2023-02-19T13:55:54.912Z,6.90
2023-02-19T13:58:59.760Z,4.77
2023-02-19T14:02:29.373Z,6.20
2023-02-19T14:05:10.456Z,6.43
2023-02-19T14:08:00.115Z,5.55
2023-02-19T14:11:03.495Z,6.01
2023-02-19T14:14:19.894Z,6.28
2023-02-19T14:17:24.416Z,6.21
2023-02-19T14:20:01.921Z,5.66
2023-02-19T14:23:01.686Z,6.65
2023-02-19T14:25:46.958Z,5.52
2023-02-19T14:28:27.147Z,6.81
2023-02-19T14:31:01.577Z,5.19
2023-02-19T14:33:38.248Z,6.77
2023-02-19T14:36:20.088Z,6.85
2023-02-19T14:38:58.458Z,5.09
2023-02-19T14:41:34.744Z,5.27
2023-02-19T14:44:30.785Z,5.81
2023-02-19T14:47:12.020Z,6.72
2023-02-19T14:49:45.967Z,6.57
2023-02-19T14:52:22.022Z,6.49
2023-02-19T14:54:59.073Z,6.38
2023-02-19T14:57:31.701Z,3.98
2023-02-19T15:00:21.057Z,6.18
2023-02-19T15:02:51.433Z,6.15
2023-02-19T15:05:51.374Z,6.17
2023-02-19T15:19:53.328Z,6.19
2023-02-19T15:22:29.792Z,6.15
2023-02-19T15:25:04.835Z,6.17
2023-02-19T15:27:39.615Z,6.23
2023-02-19T15:30:57.066Z,4.54
2023-02-19T15:33:40.264Z,6.26
2023-02-19T15:36:25.313Z,6.18
2023-02-19T15:39:19.206Z,4.42
2023-02-19T15:42:17.219Z,4.14
2023-02-19T15:45:32.735Z,5.59
2023-02-19T15:52:00.275Z,6.16
2023-02-19T15:55:17.947Z,4.66
2023-02-19T15:58:29.113Z,4.07
2023-02-19T16:01:15.412Z,5.89
2023-02-19T16:03:58.656Z,5.81
2023-02-19T16:07:00.819Z,5.18
2023-02-19T16:09:42.508Z,5.79
2023-02-19T16:12:33.068Z,5.88
2023-02-19T16:15:32.028Z,5.72
2023-02-19T16:18:16.954Z,5.72
2023-02-19T16:25:52.034Z,5.91
2023-02-19T16:29:42.820Z,5.93
2023-02-19T16:32:26.331Z,3.68
2023-02-19T16:38:34.458Z,5.26
2023-02-19T16:41:20.093Z,5.34
2023-02-19T16:43:49.554Z,5.25
2023-02-19T16:46:19.952Z,5.23
2023-02-19T16:48:51.638Z,5.30
2023-02-19T16:51:31.276Z,5.16
2023-02-19T16:54:00.421Z,5.02
2023-02-19T16:56:30.528Z,5.02
2023-02-19T16:58:59.649Z,4.90
2023-02-19T17:01:28.857Z,4.76
2023-02-19T17:04:05.742Z,4.78
2023-02-19T17:06:37.816Z,4.67
2023-02-19T17:09:08.519Z,4.56
2023-02-19T17:11:44.058Z,4.51
2023-02-19T17:14:13.089Z,4.49
2023-02-19T17:16:43.564Z,4.46
2023-02-19T17:19:19.850Z,4.02
2023-02-19T17:21:49.295Z,4.23
2023-02-19T17:24:20.759Z,4.21
2023-02-19T17:27:00.170Z,4.18
2023-02-19T17:29:33.902Z,4.17
2023-02-19T17:32:04.208Z,4.12
2023-02-19T17:34:34.610Z,4.04
2023-02-19T17:37:03.691Z,4.03
2023-02-19T17:39:35.543Z,4.04
2023-02-19T17:42:06.176Z,3.97
2023-02-19T17:44:35.069Z,4.01
2023-02-19T17:47:04.346Z,3.94
2023-02-19T17:49:35.293Z,3.94
2023-02-19T17:52:04.647Z,3.84
2023-02-19T17:54:34.373Z,3.80
2023-02-19T17:57:03.423Z,3.64
2023-02-19T17:59:32.333Z,3.51
2023-02-19T18:02:03.292Z,3.38
2023-02-19T18:04:45.967Z,3.11
2023-02-19T18:07:14.962Z,3.12
2023-02-19T18:09:51.094Z,3.00
2023-02-19T18:12:20.185Z,2.93
2023-02-19T18:14:50.406Z,2.88
2023-02-19T18:17:22.065Z,2.82
2023-02-19T18:20:03.887Z,2.72
2023-02-19T18:22:33.716Z,2.66
2023-02-19T18:25:02.708Z,2.63
2023-02-19T18:27:31.683Z,2.64
2023-02-19T18:30:02.037Z,2.65
2023-02-19T18:32:31.494Z,2.60
2023-02-19T18:35:02.152Z,2.55
2023-02-19T18:37:37.382Z,2.47
2023-02-19T18:40:08.740Z,2.39
2023-02-19T18:42:37.956Z,2.32
2023-02-19T18:45:07.623Z,2.24
2023-02-19T18:47:39.223Z,2.17
2023-02-19T18:50:13.118Z,2.13
2023-02-19T18:52:42.371Z,2.09
2023-02-19T18:55:13.685Z,2.17
2023-02-19T18:57:50.250Z,2.22
2023-02-19T19:00:25.687Z,2.21
2023-02-19T19:02:58.243Z,2.19
2023-02-19T19:05:31.426Z,2.23
2023-02-19T19:08:07.690Z,2.15
2023-02-19T19:10:40.479Z,2.05
2023-02-19T19:13:11.225Z,2.00
2023-02-19T19:15:41.597Z,2.03
2023-02-19T19:18:10.779Z,2.03
2023-02-19T19:20:43.828Z,2.01
2023-02-19T19:23:14.885Z,1.92
2023-02-19T19:25:47.040Z,1.85
2023-02-19T19:28:20.515Z,1.87
2023-02-19T19:30:50.002Z,1.83
2023-02-19T19:33:32.889Z,1.82
2023-02-19T19:36:04.725Z,1.81
2023-02-19T19:38:40.369Z,1.80
2023-02-19T19:41:12.410Z,1.82
2023-02-19T19:43:42.936Z,1.80
2023-02-19T19:46:14.126Z,1.79
2023-02-19T19:48:57.800Z,1.77
2023-02-19T19:51:39.736Z,-0.35
2023-02-19T19:54:14.624Z,1.70
2023-02-19T19:56:51.146Z,0.59
2023-02-19T19:59:23.782Z,1.67
2023-02-19T20:01:55.754Z,1.67
2023-02-19T20:04:27.133Z,1.66
2023-02-19T20:07:03.076Z,1.67
2023-02-19T20:09:39.197Z,1.60
2023-02-19T20:12:13.054Z,1.56
2023-02-19T20:14:48.496Z,1.58
2023-02-19T20:17:17.612Z,1.53
2023-02-19T20:19:50.587Z,1.50
2023-02-19T20:22:21.028Z,1.42
2023-02-19T20:24:52.055Z,1.35
2023-02-19T20:27:25.243Z,1.33
2023-02-19T20:29:56.179Z,1.35
2023-02-19T20:32:30.718Z,1.36
2023-02-19T20:35:01.956Z,1.32
2023-02-19T20:37:32.522Z,1.28
2023-02-19T20:40:01.820Z,1.23
2023-02-19T20:42:31.072Z,1.19
2023-02-19T20:44:59.988Z,1.18
2023-02-19T20:47:30.733Z,1.15
2023-02-19T20:50:00.660Z,1.12
2023-02-19T20:52:36.875Z,1.13
2023-02-19T20:55:06.821Z,1.06
2023-02-19T20:57:38.564Z,1.12
2023-02-19T21:00:11.256Z,0.08
2023-02-19T21:02:42.662Z,1.13
2023-02-19T21:05:13.739Z,1.14
2023-02-19T21:07:46.460Z,1.15
2023-02-19T21:10:41.449Z,1.20
2023-02-19T21:13:25.548Z,1.17
2023-02-19T21:16:01.861Z,1.12
2023-02-19T21:19:13.909Z,1.10
2023-02-19T21:21:45.597Z,1.16
2023-02-19T21:24:20.206Z,1.20
2023-02-19T21:26:49.892Z,1.24
2023-02-19T21:29:23.811Z,1.25
2023-02-19T21:32:21.663Z,1.33
2023-02-19T21:35:16.399Z,1.41
2023-02-19T21:37:48.032Z,1.50
2023-02-19T21:40:20.099Z,1.57
2023-02-19T21:42:51.638Z,1.65
2023-02-19T21:45:21.858Z,1.69
2023-02-19T21:47:52.982Z,1.66
2023-02-19T21:50:22.203Z,1.62
2023-02-19T21:52:53.545Z,1.58
2023-02-19T21:55:26.964Z,1.47
2023-02-19T21:57:57.915Z,1.38
2023-02-19T22:00:26.849Z,1.32
2023-02-19T22:02:58.520Z,1.28
2023-02-19T22:05:29.476Z,1.26
2023-02-19T22:08:02.805Z,1.33
2023-02-19T22:10:35.938Z,1.44
2023-02-19T22:13:05.081Z,1.51
2023-02-19T22:15:39.029Z,1.53
2023-02-19T22:18:10.642Z,1.45
2023-02-19T22:20:39.698Z,1.36
2023-02-19T22:23:11.655Z,1.35
2023-02-19T22:25:42.081Z,1.35
2023-02-19T22:28:17.278Z,1.28
2023-02-19T22:30:48.244Z,1.23
2023-02-19T22:33:19.362Z,1.28
2023-02-19T22:35:48.360Z,1.29
2023-02-19T22:38:21.937Z,1.23
2023-02-19T22:40:54.781Z,1.26
2023-02-19T22:43:24.033Z,1.34
2023-02-19T22:45:55.296Z,1.41
2023-02-19T22:48:30.113Z,1.50
2023-02-19T22:51:04.577Z,1.63
2023-02-19T22:53:34.794Z,1.69
2023-02-19T22:56:09.842Z,1.76
2023-02-19T22:58:41.061Z,1.82
2023-02-19T23:01:16.288Z,1.87
2023-02-19T23:03:52.827Z,1.11
2023-02-19T23:06:25.359Z,1.89
2023-02-19T23:08:54.995Z,1.92
2023-02-19T23:11:31.041Z,1.17
2023-02-19T23:14:06.525Z,1.97
2023-02-19T23:16:51.880Z,1.93
2023-02-19T23:19:21.125Z,1.93
2023-02-19T23:21:50.924Z,1.88
2023-02-19T23:24:21.994Z,1.84
2023-02-19T23:26:54.588Z,1.85
2023-02-19T23:29:26.738Z,1.85
2023-02-19T23:31:59.790Z,1.89
2023-02-19T23:34:31.189Z,1.91
2023-02-19T23:37:00.332Z,1.95
2023-02-19T23:39:31.077Z,1.98
2023-02-19T23:42:06.244Z,2.04
2023-02-19T23:44:35.614Z,2.02
2023-02-19T23:47:10.620Z,1.93
2023-02-19T23:49:40.942Z,1.85
2023-02-19T23:52:10.249Z,1.78
2023-02-19T23:54:39.525Z,1.74
2023-02-19T23:57:25.647Z,1.73
2023-02-19T23:59:54.871Z,1.72
